sensor_id;sensor_type;location;lat;lon;timestamp;temperature;humidity
41533;DHT22;27262;-35.248;149.138;2024-03-02T00:02:00;24.50;66.70
41533;DHT22;27262;-35.248;149.138;2024-03-02T00:04:31;24.50;67.00
41533;DHT22;27262;-35.248;149.138;2024-03-02T00:07:01;24.50;66.80
41533;DHT22;27262;-35.248;149.138;2024-03-02T00:09:32;24.50;66.40
41533;DHT22;27262;-35.248;149.138;2024-03-02T00:12:03;24.50;66.10
41533;DHT22;27262;-35.248;149.138;2024-03-02T00:14:35;24.50;65.90
41533;DHT22;27262;-35.248;149.138;2024-03-02T00:17:08;24.50;65.50
41533;DHT22;27262;-35.248;149.138;2024-03-02T00:19:46;24.50;65.10
41533;DHT22;27262;-35.248;149.138;2024-03-02T00:22:16;24.40;65.00
41533;DHT22;27262;-35.248;149.138;2024-03-02T00:24:47;24.40;64.50
41533;DHT22;27262;-35.248;149.138;2024-03-02T00:27:22;24.40;64.20
41533;DHT22;27262;-35.248;149.138;2024-03-02T00:29:54;24.40;63.80
41533;DHT22;27262;-35.248;149.138;2024-03-02T00:32:26;24.40;64.10
41533;DHT22;27262;-35.248;149.138;2024-03-02T00:34:57;24.40;63.80
41533;DHT22;27262;-35.248;149.138;2024-03-02T00:37:28;24.40;63.90
41533;DHT22;27262;-35.248;149.138;2024-03-02T00:39:59;24.40;64.10
41533;DHT22;27262;-35.248;149.138;2024-03-02T00:42:31;24.40;63.80
41533;DHT22;27262;-35.248;149.138;2024-03-02T00:45:08;24.40;63.60
41533;DHT22;27262;-35.248;149.138;2024-03-02T00:47:41;24.40;63.40
41533;DHT22;27262;-35.248;149.138;2024-03-02T00:50:13;24.40;63.30
41533;DHT22;27262;-35.248;149.138;2024-03-02T00:52:57;24.40;63.30
41533;DHT22;27262;-35.248;149.138;2024-03-02T00:55:27;24.40;63.30
41533;DHT22;27262;-35.248;149.138;2024-03-02T00:57:57;24.40;63.30
41533;DHT22;27262;-35.248;149.138;2024-03-02T01:00:28;24.40;63.40
41533;DHT22;27262;-35.248;149.138;2024-03-02T01:02:58;24.40;63.30
41533;DHT22;27262;-35.248;149.138;2024-03-02T01:05:29;24.40;63.40
41533;DHT22;27262;-35.248;149.138;2024-03-02T01:07:59;24.40;63.40
41533;DHT22;27262;-35.248;149.138;2024-03-02T01:10:29;24.50;63.50
41533;DHT22;27262;-35.248;149.138;2024-03-02T01:13:00;24.50;63.50
41533;DHT22;27262;-35.248;149.138;2024-03-02T01:15:30;24.50;63.50
41533;DHT22;27262;-35.248;149.138;2024-03-02T01:18:00;24.50;63.50
41533;DHT22;27262;-35.248;149.138;2024-03-02T01:20:31;24.50;63.60
41533;DHT22;27262;-35.248;149.138;2024-03-02T01:23:01;24.50;63.60
41533;DHT22;27262;-35.248;149.138;2024-03-02T01:25:32;24.50;63.60
41533;DHT22;27262;-35.248;149.138;2024-03-02T01:28:02;24.50;63.60
41533;DHT22;27262;-35.248;149.138;2024-03-02T01:30:33;24.50;63.70
41533;DHT22;27262;-35.248;149.138;2024-03-02T01:33:04;24.50;63.80
41533;DHT22;27262;-35.248;149.138;2024-03-02T01:35:35;24.50;63.80
41533;DHT22;27262;-35.248;149.138;2024-03-02T01:38:06;24.50;63.80
41533;DHT22;27262;-35.248;149.138;2024-03-02T01:40:38;24.50;63.80
41533;DHT22;27262;-35.248;149.138;2024-03-02T01:43:09;24.50;63.80
41533;DHT22;27262;-35.248;149.138;2024-03-02T01:45:39;24.50;63.80
41533;DHT22;27262;-35.248;149.138;2024-03-02T01:48:10;24.50;63.80
41533;DHT22;27262;-35.248;149.138;2024-03-02T01:50:40;24.50;63.80
41533;DHT22;27262;-35.248;149.138;2024-03-02T01:53:10;24.50;63.80
41533;DHT22;27262;-35.248;149.138;2024-03-02T01:55:41;24.50;63.80
41533;DHT22;27262;-35.248;149.138;2024-03-02T01:58:11;24.60;63.80
41533;DHT22;27262;-35.248;149.138;2024-03-02T02:00:41;24.50;63.80
41533;DHT22;27262;-35.248;149.138;2024-03-02T02:03:12;24.60;63.80
41533;DHT22;27262;-35.248;149.138;2024-03-02T02:05:45;24.60;63.90
41533;DHT22;27262;-35.248;149.138;2024-03-02T02:08:17;24.60;63.80
41533;DHT22;27262;-35.248;149.138;2024-03-02T02:10:50;24.60;63.90
41533;DHT22;27262;-35.248;149.138;2024-03-02T02:13:21;24.60;63.80
41533;DHT22;27262;-35.248;149.138;2024-03-02T02:15:52;24.60;63.80
41533;DHT22;27262;-35.248;149.138;2024-03-02T02:18:23;24.60;63.60
41533;DHT22;27262;-35.248;149.138;2024-03-02T02:20:54;24.60;63.30
41533;DHT22;27262;-35.248;149.138;2024-03-02T02:23:24;24.60;62.10
41533;DHT22;27262;-35.248;149.138;2024-03-02T02:25:54;24.60;61.60
41533;DHT22;27262;-35.248;149.138;2024-03-02T02:28:25;24.60;60.60
41533;DHT22;27262;-35.248;149.138;2024-03-02T02:30:55;24.70;59.90
41533;DHT22;27262;-35.248;149.138;2024-03-02T02:33:26;24.70;59.40
41533;DHT22;27262;-35.248;149.138;2024-03-02T02:35:56;24.70;58.30
41533;DHT22;27262;-35.248;149.138;2024-03-02T02:38:27;24.70;57.50
41533;DHT22;27262;-35.248;149.138;2024-03-02T02:40:57;24.70;57.00
41533;DHT22;27262;-35.248;149.138;2024-03-02T02:43:28;24.70;57.10
41533;DHT22;27262;-35.248;149.138;2024-03-02T02:45:59;24.70;57.20
41533;DHT22;27262;-35.248;149.138;2024-03-02T02:48:29;24.70;57.50
41533;DHT22;27262;-35.248;149.138;2024-03-02T02:51:00;24.70;57.80
41533;DHT22;27262;-35.248;149.138;2024-03-02T02:53:30;24.70;57.90
41533;DHT22;27262;-35.248;149.138;2024-03-02T02:56:00;24.70;58.20
41533;DHT22;27262;-35.248;149.138;2024-03-02T02:58:31;24.70;58.10
41533;DHT22;27262;-35.248;149.138;2024-03-02T03:01:02;24.80;57.50
41533;DHT22;27262;-35.248;149.138;2024-03-02T03:03:33;24.80;57.20
41533;DHT22;27262;-35.248;149.138;2024-03-02T03:06:04;24.70;57.10
41533;DHT22;27262;-35.248;149.138;2024-03-02T03:08:35;24.80;57.00
41533;DHT22;27262;-35.248;149.138;2024-03-02T03:11:05;24.70;56.50
41533;DHT22;27262;-35.248;149.138;2024-03-02T03:13:35;24.70;56.20
41533;DHT22;27262;-35.248;149.138;2024-03-02T03:16:06;24.80;56.60
41533;DHT22;27262;-35.248;149.138;2024-03-02T03:18:36;24.80;57.10
41533;DHT22;27262;-35.248;149.138;2024-03-02T03:21:08;24.80;57.50
41533;DHT22;27262;-35.248;149.138;2024-03-02T03:23:38;24.80;57.80
41533;DHT22;27262;-35.248;149.138;2024-03-02T03:26:08;24.80;58.20
41533;DHT22;27262;-35.248;149.138;2024-03-02T03:28:39;24.90;58.50
41533;DHT22;27262;-35.248;149.138;2024-03-02T03:31:09;24.90;58.80
41533;DHT22;27262;-35.248;149.138;2024-03-02T03:33:40;24.90;59.10
41533;DHT22;27262;-35.248;149.138;2024-03-02T03:36:10;24.90;59.30
41533;DHT22;27262;-35.248;149.138;2024-03-02T03:38:41;24.90;59.60
41533;DHT22;27262;-35.248;149.138;2024-03-02T03:41:11;24.90;59.80
41533;DHT22;27262;-35.248;149.138;2024-03-02T03:43:41;24.90;60.10
41533;DHT22;27262;-35.248;149.138;2024-03-02T03:46:12;24.90;59.20
41533;DHT22;27262;-35.248;149.138;2024-03-02T03:48:42;24.90;57.50
41533;DHT22;27262;-35.248;149.138;2024-03-02T03:51:12;24.90;57.50
41533;DHT22;27262;-35.248;149.138;2024-03-02T03:53:42;24.90;56.20
41533;DHT22;27262;-35.248;149.138;2024-03-02T03:56:13;24.90;56.60
41533;DHT22;27262;-35.248;149.138;2024-03-02T03:58:43;24.90;55.90
41533;DHT22;27262;-35.248;149.138;2024-03-02T04:01:13;24.90;57.20
41533;DHT22;27262;-35.248;149.138;2024-03-02T04:03:44;24.90;57.20
41533;DHT22;27262;-35.248;149.138;2024-03-02T04:06:14;24.90;57.30
41533;DHT22;27262;-35.248;149.138;2024-03-02T04:08:46;24.90;56.80
41533;DHT22;27262;-35.248;149.138;2024-03-02T04:11:17;24.90;56.50
41533;DHT22;27262;-35.248;149.138;2024-03-02T04:13:47;24.90;56.40
41533;DHT22;27262;-35.248;149.138;2024-03-02T04:16:22;24.90;56.00
41533;DHT22;27262;-35.248;149.138;2024-03-02T04:18:54;25.00;55.60
41533;DHT22;27262;-35.248;149.138;2024-03-02T04:21:24;25.00;55.80
41533;DHT22;27262;-35.248;149.138;2024-03-02T04:23:55;25.00;55.90
41533;DHT22;27262;-35.248;149.138;2024-03-02T04:26:28;25.00;55.90
41533;DHT22;27262;-35.248;149.138;2024-03-02T04:28:58;25.00;56.10
41533;DHT22;27262;-35.248;149.138;2024-03-02T04:31:29;25.00;55.80
41533;DHT22;27262;-35.248;149.138;2024-03-02T04:33:59;25.00;55.30
41533;DHT22;27262;-35.248;149.138;2024-03-02T04:36:30;25.00;55.10
41533;DHT22;27262;-35.248;149.138;2024-03-02T04:39:00;25.00;54.60
41533;DHT22;27262;-35.248;149.138;2024-03-02T04:41:31;25.00;54.00
41533;DHT22;27262;-35.248;149.138;2024-03-02T04:44:01;25.00;53.20
41533;DHT22;27262;-35.248;149.138;2024-03-02T04:46:32;25.00;52.80
41533;DHT22;27262;-35.248;149.138;2024-03-02T04:49:02;25.00;53.10
41533;DHT22;27262;-35.248;149.138;2024-03-02T04:51:32;25.10;53.00
41533;DHT22;27262;-35.248;149.138;2024-03-02T04:54:03;25.10;52.70
41533;DHT22;27262;-35.248;149.138;2024-03-02T04:56:34;25.10;52.70
41533;DHT22;27262;-35.248;149.138;2024-03-02T04:59:13;25.10;52.70
41533;DHT22;27262;-35.248;149.138;2024-03-02T05:01:44;25.10;52.70
41533;DHT22;27262;-35.248;149.138;2024-03-02T05:04:15;25.10;52.60
41533;DHT22;27262;-35.248;149.138;2024-03-02T05:06:46;25.10;52.70
41533;DHT22;27262;-35.248;149.138;2024-03-02T05:09:22;25.20;52.60
41533;DHT22;27262;-35.248;149.138;2024-03-02T05:11:52;25.20;52.30
41533;DHT22;27262;-35.248;149.138;2024-03-02T05:14:40;25.20;52.40
41533;DHT22;27262;-35.248;149.138;2024-03-02T05:17:10;25.20;52.50
41533;DHT22;27262;-35.248;149.138;2024-03-02T05:19:41;25.20;52.50
41533;DHT22;27262;-35.248;149.138;2024-03-02T05:22:11;25.20;52.70
41533;DHT22;27262;-35.248;149.138;2024-03-02T05:24:41;25.20;52.40
41533;DHT22;27262;-35.248;149.138;2024-03-02T05:27:12;25.20;52.60
41533;DHT22;27262;-35.248;149.138;2024-03-02T05:29:42;25.20;52.90
41533;DHT22;27262;-35.248;149.138;2024-03-02T05:32:12;25.20;52.90
41533;DHT22;27262;-35.248;149.138;2024-03-02T05:34:43;25.20;53.00
41533;DHT22;27262;-35.248;149.138;2024-03-02T05:37:13;25.20;53.10
41533;DHT22;27262;-35.248;149.138;2024-03-02T05:39:43;25.20;53.00
41533;DHT22;27262;-35.248;149.138;2024-03-02T05:42:14;25.30;53.10
41533;DHT22;27262;-35.248;149.138;2024-03-02T05:44:46;25.30;53.40
41533;DHT22;27262;-35.248;149.138;2024-03-02T05:47:17;25.30;53.50
41533;DHT22;27262;-35.248;149.138;2024-03-02T05:49:47;25.30;53.70
41533;DHT22;27262;-35.248;149.138;2024-03-02T05:52:17;25.30;53.80
41533;DHT22;27262;-35.248;149.138;2024-03-02T05:54:47;25.30;54.00
41533;DHT22;27262;-35.248;149.138;2024-03-02T05:57:19;25.30;54.20
41533;DHT22;27262;-35.248;149.138;2024-03-02T06:00:21;25.40;54.30
41533;DHT22;27262;-35.248;149.138;2024-03-02T06:02:52;25.30;54.40
41533;DHT22;27262;-35.248;149.138;2024-03-02T06:05:22;25.40;53.10
41533;DHT22;27262;-35.248;149.138;2024-03-02T06:07:52;25.40;50.20
41533;DHT22;27262;-35.248;149.138;2024-03-02T06:10:23;25.50;48.30
41533;DHT22;27262;-35.248;149.138;2024-03-02T06:12:53;25.50;48.00
41533;DHT22;27262;-35.248;149.138;2024-03-02T06:15:23;25.50;45.90
41533;DHT22;27262;-35.248;149.138;2024-03-02T06:17:54;25.50;44.90
41533;DHT22;27262;-35.248;149.138;2024-03-02T06:20:25;25.60;45.30
41533;DHT22;27262;-35.248;149.138;2024-03-02T06:22:58;25.60;45.40
41533;DHT22;27262;-35.248;149.138;2024-03-02T06:25:28;25.60;46.20
41533;DHT22;27262;-35.248;149.138;2024-03-02T06:27:58;25.60;47.00
41533;DHT22;27262;-35.248;149.138;2024-03-02T06:30:29;25.60;45.60
41533;DHT22;27262;-35.248;149.138;2024-03-02T06:32:59;25.60;45.10
41533;DHT22;27262;-35.248;149.138;2024-03-02T06:35:30;25.60;44.60
41533;DHT22;27262;-35.248;149.138;2024-03-02T06:38:00;25.60;45.70
41533;DHT22;27262;-35.248;149.138;2024-03-02T06:40:30;25.60;45.90
41533;DHT22;27262;-35.248;149.138;2024-03-02T06:43:00;25.60;45.30
41533;DHT22;27262;-35.248;149.138;2024-03-02T06:45:31;25.60;46.00
41533;DHT22;27262;-35.248;149.138;2024-03-02T06:48:04;25.60;46.30
41533;DHT22;27262;-35.248;149.138;2024-03-02T06:50:34;25.60;46.70
41533;DHT22;27262;-35.248;149.138;2024-03-02T06:53:05;25.60;47.20
41533;DHT22;27262;-35.248;149.138;2024-03-02T06:55:35;25.60;47.90
41533;DHT22;27262;-35.248;149.138;2024-03-02T06:58:05;25.60;49.50
41533;DHT22;27262;-35.248;149.138;2024-03-02T07:00:36;25.60;50.70
41533;DHT22;27262;-35.248;149.138;2024-03-02T07:03:06;25.60;51.50
41533;DHT22;27262;-35.248;149.138;2024-03-02T07:05:36;25.50;52.20
41533;DHT22;27262;-35.248;149.138;2024-03-02T07:08:07;25.50;52.70
41533;DHT22;27262;-35.248;149.138;2024-03-02T07:10:37;25.50;52.90
41533;DHT22;27262;-35.248;149.138;2024-03-02T07:13:07;25.40;53.30
41533;DHT22;27262;-35.248;149.138;2024-03-02T07:15:38;25.30;53.90
41533;DHT22;27262;-35.248;149.138;2024-03-02T07:18:27;25.30;54.00
41533;DHT22;27262;-35.248;149.138;2024-03-02T07:20:57;25.20;54.40
41533;DHT22;27262;-35.248;149.138;2024-03-02T07:23:30;25.20;54.40
41533;DHT22;27262;-35.248;149.138;2024-03-02T07:26:01;25.20;54.40
41533;DHT22;27262;-35.248;149.138;2024-03-02T07:28:35;25.20;54.50
41533;DHT22;27262;-35.248;149.138;2024-03-02T07:31:06;25.20;54.50
41533;DHT22;27262;-35.248;149.138;2024-03-02T07:33:58;25.10;54.60
41533;DHT22;27262;-35.248;149.138;2024-03-02T07:36:29;25.10;55.30
41533;DHT22;27262;-35.248;149.138;2024-03-02T07:38:59;25.10;54.80
41533;DHT22;27262;-35.248;149.138;2024-03-02T07:41:29;25.00;54.90
41533;DHT22;27262;-35.248;149.138;2024-03-02T07:44:00;25.10;55.00
41533;DHT22;27262;-35.248;149.138;2024-03-02T07:46:30;25.00;55.20
41533;DHT22;27262;-35.248;149.138;2024-03-02T07:49:01;25.10;55.20
41533;DHT22;27262;-35.248;149.138;2024-03-02T07:51:31;25.20;55.30
41533;DHT22;27262;-35.248;149.138;2024-03-02T07:54:02;25.20;55.30
41533;DHT22;27262;-35.248;149.138;2024-03-02T07:56:33;25.20;55.40
41533;DHT22;27262;-35.248;149.138;2024-03-02T07:59:04;25.20;55.40
41533;DHT22;27262;-35.248;149.138;2024-03-02T08:01:34;25.30;55.60
41533;DHT22;27262;-35.248;149.138;2024-03-02T08:04:04;25.30;55.60
41533;DHT22;27262;-35.248;149.138;2024-03-02T08:06:35;25.30;55.60
41533;DHT22;27262;-35.248;149.138;2024-03-02T08:09:05;25.30;55.70
41533;DHT22;27262;-35.248;149.138;2024-03-02T08:11:39;25.30;55.70
41533;DHT22;27262;-35.248;149.138;2024-03-02T08:14:09;25.30;55.80
41533;DHT22;27262;-35.248;149.138;2024-03-02T08:16:41;25.30;56.50
41533;DHT22;27262;-35.248;149.138;2024-03-02T08:19:11;25.30;55.90
41533;DHT22;27262;-35.248;149.138;2024-03-02T08:21:42;25.30;55.90
41533;DHT22;27262;-35.248;149.138;2024-03-02T08:24:13;25.30;55.90
41533;DHT22;27262;-35.248;149.138;2024-03-02T08:26:43;25.30;55.90
41533;DHT22;27262;-35.248;149.138;2024-03-02T08:29:14;25.30;55.90
41533;DHT22;27262;-35.248;149.138;2024-03-02T08:31:44;25.30;55.90
41533;DHT22;27262;-35.248;149.138;2024-03-02T08:34:15;25.40;56.00
41533;DHT22;27262;-35.248;149.138;2024-03-02T08:36:45;25.30;56.00
41533;DHT22;27262;-35.248;149.138;2024-03-02T08:39:16;25.30;56.00
41533;DHT22;27262;-35.248;149.138;2024-03-02T08:41:47;25.30;56.00
41533;DHT22;27262;-35.248;149.138;2024-03-02T08:44:18;25.30;56.10
41533;DHT22;27262;-35.248;149.138;2024-03-02T08:46:48;25.30;56.20
41533;DHT22;27262;-35.248;149.138;2024-03-02T08:49:20;25.30;56.20
41533;DHT22;27262;-35.248;149.138;2024-03-02T08:51:50;25.30;56.20
41533;DHT22;27262;-35.248;149.138;2024-03-02T08:54:24;25.30;56.20
41533;DHT22;27262;-35.248;149.138;2024-03-02T08:56:54;25.30;56.30
41533;DHT22;27262;-35.248;149.138;2024-03-02T08:59:25;25.20;56.30
41533;DHT22;27262;-35.248;149.138;2024-03-02T09:01:58;25.30;56.40
41533;DHT22;27262;-35.248;149.138;2024-03-02T09:04:29;25.30;56.40
41533;DHT22;27262;-35.248;149.138;2024-03-02T09:07:02;25.30;56.40
41533;DHT22;27262;-35.248;149.138;2024-03-02T09:09:32;25.30;56.40
41533;DHT22;27262;-35.248;149.138;2024-03-02T09:12:03;25.30;56.40
41533;DHT22;27262;-35.248;149.138;2024-03-02T09:14:34;25.30;56.40
41533;DHT22;27262;-35.248;149.138;2024-03-02T09:17:05;25.20;56.40
41533;DHT22;27262;-35.248;149.138;2024-03-02T09:19:35;25.20;56.30
41533;DHT22;27262;-35.248;149.138;2024-03-02T09:22:05;25.20;56.30
41533;DHT22;27262;-35.248;149.138;2024-03-02T09:24:36;25.20;56.40
41533;DHT22;27262;-35.248;149.138;2024-03-02T09:27:06;25.20;56.30
41533;DHT22;27262;-35.248;149.138;2024-03-02T09:29:37;25.20;56.20
41533;DHT22;27262;-35.248;149.138;2024-03-02T09:32:08;25.20;56.30
41533;DHT22;27262;-35.248;149.138;2024-03-02T09:34:42;25.20;56.30
41533;DHT22;27262;-35.248;149.138;2024-03-02T09:37:13;25.20;56.30
41533;DHT22;27262;-35.248;149.138;2024-03-02T09:39:44;25.20;56.30
41533;DHT22;27262;-35.248;149.138;2024-03-02T09:42:14;25.20;56.90
41533;DHT22;27262;-35.248;149.138;2024-03-02T09:44:46;25.20;56.30
41533;DHT22;27262;-35.248;149.138;2024-03-02T09:47:17;25.20;56.30
41533;DHT22;27262;-35.248;149.138;2024-03-02T09:49:48;25.20;56.90
41533;DHT22;27262;-35.248;149.138;2024-03-02T09:52:18;25.20;56.30
41533;DHT22;27262;-35.248;149.138;2024-03-02T09:54:49;25.20;56.30
41533;DHT22;27262;-35.248;149.138;2024-03-02T09:57:19;25.20;56.20
41533;DHT22;27262;-35.248;149.138;2024-03-02T09:59:50;25.20;56.20
41533;DHT22;27262;-35.248;149.138;2024-03-02T10:02:20;25.20;56.20
41533;DHT22;27262;-35.248;149.138;2024-03-02T10:04:51;25.20;56.20
41533;DHT22;27262;-35.248;149.138;2024-03-02T10:07:21;25.20;56.20
41533;DHT22;27262;-35.248;149.138;2024-03-02T10:09:52;25.20;56.20
41533;DHT22;27262;-35.248;149.138;2024-03-02T10:12:22;25.20;56.30
41533;DHT22;27262;-35.248;149.138;2024-03-02T10:15:04;25.10;56.20
41533;DHT22;27262;-35.248;149.138;2024-03-02T10:17:35;25.20;56.20
41533;DHT22;27262;-35.248;149.138;2024-03-02T10:20:25;25.10;56.20
41533;DHT22;27262;-35.248;149.138;2024-03-02T10:22:56;25.10;56.20
41533;DHT22;27262;-35.248;149.138;2024-03-02T10:25:40;25.10;56.20
41533;DHT22;27262;-35.248;149.138;2024-03-02T10:28:24;25.10;56.20
41533;DHT22;27262;-35.248;149.138;2024-03-02T10:30:58;25.10;56.20
41533;DHT22;27262;-35.248;149.138;2024-03-02T10:33:29;25.10;56.20
41533;DHT22;27262;-35.248;149.138;2024-03-02T10:35:59;25.10;56.20
41533;DHT22;27262;-35.248;149.138;2024-03-02T10:38:30;25.10;56.20
41533;DHT22;27262;-35.248;149.138;2024-03-02T10:41:02;25.10;56.20
41533;DHT22;27262;-35.248;149.138;2024-03-02T10:43:33;25.10;56.20
41533;DHT22;27262;-35.248;149.138;2024-03-02T10:46:03;25.00;56.80
41533;DHT22;27262;-35.248;149.138;2024-03-02T10:48:36;25.00;56.20
41533;DHT22;27262;-35.248;149.138;2024-03-02T10:51:07;25.00;56.20
41533;DHT22;27262;-35.248;149.138;2024-03-02T10:53:37;25.10;56.20
41533;DHT22;27262;-35.248;149.138;2024-03-02T10:56:08;25.00;56.20
41533;DHT22;27262;-35.248;149.138;2024-03-02T10:58:39;25.00;56.20
41533;DHT22;27262;-35.248;149.138;2024-03-02T11:01:11;25.00;56.20
41533;DHT22;27262;-35.248;149.138;2024-03-02T11:03:43;25.00;56.20
41533;DHT22;27262;-35.248;149.138;2024-03-02T11:06:14;25.00;56.20
41533;DHT22;27262;-35.248;149.138;2024-03-02T11:08:47;25.00;56.20
41533;DHT22;27262;-35.248;149.138;2024-03-02T11:11:24;25.00;56.20
41533;DHT22;27262;-35.248;149.138;2024-03-02T11:14:01;25.00;56.20
41533;DHT22;27262;-35.248;149.138;2024-03-02T11:16:39;25.00;56.20
41533;DHT22;27262;-35.248;149.138;2024-03-02T11:19:15;24.90;56.20
41533;DHT22;27262;-35.248;149.138;2024-03-02T11:21:45;25.00;56.20
41533;DHT22;27262;-35.248;149.138;2024-03-02T11:26:56;25.00;56.20
41533;DHT22;27262;-35.248;149.138;2024-03-02T11:32:17;24.90;56.10
41533;DHT22;27262;-35.248;149.138;2024-03-02T11:34:49;24.90;56.20
41533;DHT22;27262;-35.248;149.138;2024-03-02T11:37:20;24.90;56.20
41533;DHT22;27262;-35.248;149.138;2024-03-02T11:39:51;24.90;56.20
41533;DHT22;27262;-35.248;149.138;2024-03-02T11:42:22;24.90;56.30
41533;DHT22;27262;-35.248;149.138;2024-03-02T11:44:57;24.90;56.30
41533;DHT22;27262;-35.248;149.138;2024-03-02T11:47:31;24.90;56.30
41533;DHT22;27262;-35.248;149.138;2024-03-02T11:50:06;24.90;56.30
41533;DHT22;27262;-35.248;149.138;2024-03-02T11:52:38;24.90;56.30
41533;DHT22;27262;-35.248;149.138;2024-03-02T11:55:10;24.90;56.30
41533;DHT22;27262;-35.248;149.138;2024-03-02T11:57:42;24.90;56.30
41533;DHT22;27262;-35.248;149.138;2024-03-02T12:00:18;24.90;56.30
41533;DHT22;27262;-35.248;149.138;2024-03-02T12:03:12;24.90;56.30
41533;DHT22;27262;-35.248;149.138;2024-03-02T12:05:43;24.90;56.30
41533;DHT22;27262;-35.248;149.138;2024-03-02T12:08:15;24.80;56.40
41533;DHT22;27262;-35.248;149.138;2024-03-02T12:11:00;24.80;56.40
41533;DHT22;27262;-35.248;149.138;2024-03-02T12:13:32;24.80;56.40
41533;DHT22;27262;-35.248;149.138;2024-03-02T12:16:07;24.80;56.40
41533;DHT22;27262;-35.248;149.138;2024-03-02T12:18:37;24.80;56.30
41533;DHT22;27262;-35.248;149.138;2024-03-02T12:21:07;24.80;56.30
41533;DHT22;27262;-35.248;149.138;2024-03-02T12:23:38;24.80;56.40
41533;DHT22;27262;-35.248;149.138;2024-03-02T12:26:08;24.80;56.40
41533;DHT22;27262;-35.248;149.138;2024-03-02T12:28:39;24.80;56.30
41533;DHT22;27262;-35.248;149.138;2024-03-02T12:31:09;24.70;56.30
41533;DHT22;27262;-35.248;149.138;2024-03-02T12:33:40;24.70;56.30
41533;DHT22;27262;-35.248;149.138;2024-03-02T12:36:12;24.70;56.30
41533;DHT22;27262;-35.248;149.138;2024-03-02T12:38:46;24.70;56.40
41533;DHT22;27262;-35.248;149.138;2024-03-02T12:41:16;24.70;56.40
41533;DHT22;27262;-35.248;149.138;2024-03-02T12:43:47;24.70;56.40
41533;DHT22;27262;-35.248;149.138;2024-03-02T12:46:17;24.70;56.40
41533;DHT22;27262;-35.248;149.138;2024-03-02T12:48:48;24.70;56.40
41533;DHT22;27262;-35.248;149.138;2024-03-02T12:51:18;24.70;56.40
41533;DHT22;27262;-35.248;149.138;2024-03-02T12:53:59;24.70;56.40
41533;DHT22;27262;-35.248;149.138;2024-03-02T12:56:29;24.70;56.40
41533;DHT22;27262;-35.248;149.138;2024-03-02T12:59:01;24.70;56.50
41533;DHT22;27262;-35.248;149.138;2024-03-02T13:01:32;24.70;56.50
41533;DHT22;27262;-35.248;149.138;2024-03-02T13:04:03;24.70;56.50
41533;DHT22;27262;-35.248;149.138;2024-03-02T13:06:34;24.70;56.50
41533;DHT22;27262;-35.248;149.138;2024-03-02T13:09:04;24.70;56.50
41533;DHT22;27262;-35.248;149.138;2024-03-02T13:11:41;24.70;56.50
41533;DHT22;27262;-35.248;149.138;2024-03-02T13:14:11;24.60;56.40
41533;DHT22;27262;-35.248;149.138;2024-03-02T13:16:42;24.60;56.40
41533;DHT22;27262;-35.248;149.138;2024-03-02T13:19:15;24.60;56.40
41533;DHT22;27262;-35.248;149.138;2024-03-02T13:21:45;24.60;56.50
41533;DHT22;27262;-35.248;149.138;2024-03-02T13:24:16;24.60;56.50
41533;DHT22;27262;-35.248;149.138;2024-03-02T13:26:46;24.60;56.50
41533;DHT22;27262;-35.248;149.138;2024-03-02T13:29:16;24.60;56.50
41533;DHT22;27262;-35.248;149.138;2024-03-02T13:31:47;24.60;56.60
41533;DHT22;27262;-35.248;149.138;2024-03-02T13:34:20;24.60;56.50
41533;DHT22;27262;-35.248;149.138;2024-03-02T13:36:50;24.60;56.60
41533;DHT22;27262;-35.248;149.138;2024-03-02T13:39:22;24.60;56.60
41533;DHT22;27262;-35.248;149.138;2024-03-02T13:41:53;24.60;56.60
41533;DHT22;27262;-35.248;149.138;2024-03-02T13:44:33;24.60;56.60
41533;DHT22;27262;-35.248;149.138;2024-03-02T13:47:04;24.50;56.60
41533;DHT22;27262;-35.248;149.138;2024-03-02T13:49:35;24.60;56.70
41533;DHT22;27262;-35.248;149.138;2024-03-02T13:52:13;24.50;56.60
41533;DHT22;27262;-35.248;149.138;2024-03-02T13:54:45;24.50;56.60
41533;DHT22;27262;-35.248;149.138;2024-03-02T13:57:16;24.50;56.60
41533;DHT22;27262;-35.248;149.138;2024-03-02T13:59:54;24.50;56.70
41533;DHT22;27262;-35.248;149.138;2024-03-02T14:02:24;24.50;56.70
41533;DHT22;27262;-35.248;149.138;2024-03-02T14:04:55;24.50;56.70
41533;DHT22;27262;-35.248;149.138;2024-03-02T14:07:25;24.50;56.70
41533;DHT22;27262;-35.248;149.138;2024-03-02T14:09:56;24.50;56.70
41533;DHT22;27262;-35.248;149.138;2024-03-02T14:12:27;24.50;56.70
41533;DHT22;27262;-35.248;149.138;2024-03-02T14:14:58;24.50;56.80
41533;DHT22;27262;-35.248;149.138;2024-03-02T14:17:29;24.50;56.80
41533;DHT22;27262;-35.248;149.138;2024-03-02T14:20:01;24.50;56.80
41533;DHT22;27262;-35.248;149.138;2024-03-02T14:22:34;24.50;56.80
41533;DHT22;27262;-35.248;149.138;2024-03-02T14:25:07;24.50;56.80
41533;DHT22;27262;-35.248;149.138;2024-03-02T14:27:38;24.50;56.90
41533;DHT22;27262;-35.248;149.138;2024-03-02T14:30:28;24.40;56.80
41533;DHT22;27262;-35.248;149.138;2024-03-02T14:32:58;24.40;56.80
41533;DHT22;27262;-35.248;149.138;2024-03-02T14:35:29;24.40;56.80
41533;DHT22;27262;-35.248;149.138;2024-03-02T14:38:00;24.40;56.90
41533;DHT22;27262;-35.248;149.138;2024-03-02T14:40:30;24.40;56.90
41533;DHT22;27262;-35.248;149.138;2024-03-02T14:43:01;24.40;56.90
41533;DHT22;27262;-35.248;149.138;2024-03-02T14:45:31;24.40;56.90
41533;DHT22;27262;-35.248;149.138;2024-03-02T14:48:02;24.40;56.90
41533;DHT22;27262;-35.248;149.138;2024-03-02T14:50:32;24.40;56.90
41533;DHT22;27262;-35.248;149.138;2024-03-02T14:53:03;24.40;57.00
41533;DHT22;27262;-35.248;149.138;2024-03-02T14:55:36;24.30;56.90
41533;DHT22;27262;-35.248;149.138;2024-03-02T14:58:07;24.30;56.90
41533;DHT22;27262;-35.248;149.138;2024-03-02T15:00:38;24.30;57.00
41533;DHT22;27262;-35.248;149.138;2024-03-02T15:03:08;24.30;57.00
41533;DHT22;27262;-35.248;149.138;2024-03-02T15:05:39;24.30;57.00
41533;DHT22;27262;-35.248;149.138;2024-03-02T15:08:10;24.30;57.00
41533;DHT22;27262;-35.248;149.138;2024-03-02T15:10:45;24.30;57.00
41533;DHT22;27262;-35.248;149.138;2024-03-02T15:13:15;24.30;57.00
41533;DHT22;27262;-35.248;149.138;2024-03-02T15:15:46;24.30;57.00
41533;DHT22;27262;-35.248;149.138;2024-03-02T15:18:16;24.30;57.00
41533;DHT22;27262;-35.248;149.138;2024-03-02T15:20:46;24.30;57.00